Asia Emerald IV — 9V3245 — position and weather

sailwx.info

Track history (hours):
 
Tides and Currents Weather Stations Pressure Air Temp Water Temp Dewpoint Dewpoint Depression Visibility Wind Speed Wind Dir Waves Ship Positions

Asia Emerald IV

Last reported at 2017-Nov-20 00:30 UTC. Time now 2017-Dec-16 03:36 UTC.
Position S 31°38' E 035°29'.
Warning: this ship's position is 26 days out of date.

Length 190 m; draft 13 m.

Type: Cargo ship. MMSI: 566162000.

Date/timePositionNaut miles runAvg speedWind from/ knotsBaromVisibWave heightAir tempDewpointWater temp
2017-Nov-20 00:30S 31°38' E 035°29'611.7
2017-Nov-20 00:00S 31°40' E 035°23'611.7
2017-Nov-19 23:30S 31°41' E 035°16'12511.1
2017-Nov-19 12:12S 32°24' E 032°57'412.2
2017-Nov-19 11:53S 32°25' E 032°53'612.2
2017-Nov-19 11:24S 32°27' E 032°46'512.2
2017-Nov-19 11:00S 32°29' E 032°41'612.3
2017-Nov-19 10:30S 32°31' E 032°34'612.3
2017-Nov-19 10:01S 32°34' E 032°28'612.3
2017-Nov-19 09:31S 32°36' E 032°21'612.2
2017-Nov-19 09:01S 32°38' E 032°14'612.0
2017-Nov-19 08:31S 32°41' E 032°08'612.0
2017-Nov-19 08:01S 32°43' E 032°01'611.9
2017-Nov-19 07:31S 32°45' E 031°55'611.8
2017-Nov-19 07:01S 32°47' E 031°48'611.7
2017-Nov-19 06:31S 32°49' E 031°41'1611.6
2017-Nov-19 05:06S 32°54' E 031°23'511.8
2017-Nov-19 04:42S 32°56' E 031°18'411.7
2017-Nov-19 04:22S 32°58' E 031°14'411.7
2017-Nov-19 04:00S 32°59' E 031°09'611.7
2017-Nov-19 03:31S 33°01' E 031°03'711.5
2017-Nov-19 02:54S 33°04' E 030°55'811.4
2017-Nov-19 02:10S 33°06' E 030°45'411.2
2017-Nov-19 01:51S 33°07' E 030°41'411.2
2017-Nov-19 01:29S 33°09' E 030°37'611.4
2017-Nov-19 01:00S 33°11' E 030°30'611.4
2017-Nov-19 00:30S 33°13' E 030°24'611.4
2017-Nov-19 00:01S 33°15' E 030°18'611.4
2017-Nov-18 23:30S 33°17' E 030°11'611.6
2017-Nov-18 23:00S 33°19' E 030°05'611.7
2017-Nov-18 22:30S 33°21' E 029°58'611.6
2017-Nov-18 22:00S 33°23' E 029°52'  
Track history (hours):
 
Tides and Currents Weather Stations Pressure Air Temp Water Temp Dewpoint Dewpoint Depression Visibility Wind Speed Wind Dir Waves Ship Positions

Asia Emerald IV

Last reported at 2017-Nov-20 00:30 UTC. Time now 2017-Dec-16 03:36 UTC.
Position S 31°38' E 035°29'.
Warning: this ship's position is 26 days out of date.

Length 190 m; draft 13 m.

Type: Cargo ship. MMSI: 566162000.

Date/timePositionNaut miles runAvg speedWind from/ knotsBaromVisibWave heightAir tempDewpointWater temp
2017-Nov-20 00:30S 31°38' E 035°29'611.7
2017-Nov-20 00:00S 31°40' E 035°23'611.7
2017-Nov-19 23:30S 31°41' E 035°16'12511.1
2017-Nov-19 12:12S 32°24' E 032°57'412.2
2017-Nov-19 11:53S 32°25' E 032°53'612.2
2017-Nov-19 11:24S 32°27' E 032°46'512.2
2017-Nov-19 11:00S 32°29' E 032°41'612.3
2017-Nov-19 10:30S 32°31' E 032°34'612.3
2017-Nov-19 10:01S 32°34' E 032°28'612.3
2017-Nov-19 09:31S 32°36' E 032°21'612.2
2017-Nov-19 09:01S 32°38' E 032°14'612.0
2017-Nov-19 08:31S 32°41' E 032°08'612.0
2017-Nov-19 08:01S 32°43' E 032°01'611.9
2017-Nov-19 07:31S 32°45' E 031°55'611.8
2017-Nov-19 07:01S 32°47' E 031°48'611.7
2017-Nov-19 06:31S 32°49' E 031°41'1611.6
2017-Nov-19 05:06S 32°54' E 031°23'511.8
2017-Nov-19 04:42S 32°56' E 031°18'411.7
2017-Nov-19 04:22S 32°58' E 031°14'411.7
2017-Nov-19 04:00S 32°59' E 031°09'611.7
2017-Nov-19 03:31S 33°01' E 031°03'711.5
2017-Nov-19 02:54S 33°04' E 030°55'811.4
2017-Nov-19 02:10S 33°06' E 030°45'411.2
2017-Nov-19 01:51S 33°07' E 030°41'411.2
2017-Nov-19 01:29S 33°09' E 030°37'611.4
2017-Nov-19 01:00S 33°11' E 030°30'611.4
2017-Nov-19 00:30S 33°13' E 030°24'611.4
2017-Nov-19 00:01S 33°15' E 030°18'611.4
2017-Nov-18 23:30S 33°17' E 030°11'611.6
2017-Nov-18 23:00S 33°19' E 030°05'611.7
2017-Nov-18 22:30S 33°21' E 029°58'611.6
2017-Nov-18 22:00S 33°23' E 029°52'  

Dump ship's entire track history